Time;durP1;ratioP1;P1;durP2;ratioP2;P2;SDS_P1;SDS_P2;PMS_P1;PMS_P2;Temp;Humidity;BMP_temperature;BMP_pressure;BME280_temperature;BME280_humidity;BME280_pressure;Samples;Min_cycle;Max_cycle;Signal;HPM_P1;HPM_P2
2024/01/07 00:01:26;;;;;;;4.47;2.93;;;0.10;99.90;;;;;;4931612;28;20214;-58
2024/01/07 00:03:52;;;;;;;4.90;3.90;;;0.10;99.90;;;;;;4936036;28;20586;-60
2024/01/07 00:06:17;;;;;;;8.43;3.97;;;0.10;99.90;;;;;;4939185;28;20212;-58
2024/01/07 00:08:43;;;;;;;6.30;3.97;;;0.10;99.90;;;;;;4937451;28;20229;-58
2024/01/07 00:11:09;;;;;;;5.37;3.07;;;0.10;99.90;;;;;;4936942;28;20843;-60
2024/01/07 00:13:34;;;;;;;4.27;3.37;;;0.20;99.90;;;;;;4929301;28;20357;-61
2024/01/07 00:16:00;;;;;;;5.73;3.17;;;0.20;99.90;;;;;;4931827;28;20211;-60
2024/01/07 00:18:26;;;;;;;6.40;3.87;;;0.10;99.90;;;;;;4939587;28;20655;-59
2024/01/07 00:20:52;;;;;;;5.53;4.53;;;-0.10;99.90;;;;;;4936906;28;20198;-60
2024/01/07 00:23:18;;;;;;;6.50;4.37;;;0.00;99.90;;;;;;4935292;28;20220;-59
2024/01/07 00:25:43;;;;;;;6.57;4.07;;;-0.10;99.90;;;;;;4929733;28;20207;-58
2024/01/07 00:28:09;;;;;;;5.67;4.13;;;-0.10;99.90;;;;;;4933411;28;20872;-65
2024/01/07 00:30:35;;;;;;;7.23;4.13;;;0.00;99.90;;;;;;4934320;28;20257;-53
2024/01/07 00:33:01;;;;;;;5.40;3.17;;;0.00;99.90;;;;;;4936949;28;20210;-53
2024/01/07 00:35:26;;;;;;;5.30;2.77;;;0.00;99.90;;;;;;4931867;28;20575;-53
2024/01/07 00:37:52;;;;;;;6.40;3.23;;;-0.20;99.90;;;;;;4936417;28;20731;-53
2024/01/07 00:40:17;;;;;;;6.17;3.30;;;-0.20;99.90;;;;;;4930898;28;20742;-52
2024/01/07 00:42:43;;;;;;;6.20;3.63;;;-0.20;99.90;;;;;;4932890;28;20300;-53
2024/01/07 00:45:09;;;;;;;3.57;3.23;;;-0.20;99.90;;;;;;4934698;28;20231;-66
2024/01/07 00:47:35;;;;;;;6.20;3.33;;;-0.20;99.90;;;;;;4935244;28;20212;-58
2024/01/07 00:50:01;;;;;;;4.63;2.97;;;-0.20;99.90;;;;;;4934058;28;20777;-59
2024/01/07 00:52:26;;;;;;;3.93;3.17;;;-0.20;99.90;;;;;;4936367;28;20775;-51
2024/01/07 00:54:52;;;;;;;3.67;2.77;;;-0.30;99.90;;;;;;4933535;28;20202;-52
2024/01/07 00:57:17;;;;;;;5.23;2.63;;;-0.40;99.90;;;;;;4933582;28;20568;-52
2024/01/07 00:59:43;;;;;;;4.73;2.77;;;-0.40;99.90;;;;;;4933696;28;20765;-51
2024/01/07 01:02:08;;;;;;;5.23;3.33;;;-0.40;99.90;;;;;;4941204;28;20294;-52
2024/01/07 01:04:34;;;;;;;3.53;3.10;;;-0.30;99.90;;;;;;4940239;28;20203;-53
2024/01/07 01:06:59;;;;;;;6.07;2.80;;;-0.30;99.90;;;;;;4930393;28;20714;-58
2024/01/07 01:09:27;;;;;;;1.73;1.50;;;-0.20;99.90;;;;;;4939364;28;20309;-58
2024/01/07 01:11:53;;;;;;;1.87;1.77;;;-0.30;99.90;;;;;;4933070;28;20298;-59
2024/01/07 01:14:18;;;;;;;4.67;2.20;;;-0.30;99.90;;;;;;4936720;28;20220;-60
2024/01/07 01:16:43;;;;;;;4.30;2.67;;;-0.40;99.90;;;;;;4936099;28;20238;-62
2024/01/07 01:19:09;;;;;;;6.23;2.97;;;-0.40;99.90;;;;;;4943772;28;20224;-60
2024/01/07 01:21:35;;;;;;;4.23;2.50;;;-0.30;99.90;;;;;;4939551;28;20237;-59
2024/01/07 01:24:00;;;;;;;2.27;1.93;;;-0.30;99.90;;;;;;4942867;28;20204;-53
2024/01/07 01:26:26;;;;;;;2.03;1.93;;;-0.40;99.90;;;;;;4943632;28;20213;-53
2024/01/07 01:28:51;;;;;;;3.27;2.90;;;-0.50;99.90;;;;;;4942232;28;20215;-62
2024/01/07 01:31:17;;;;;;;3.33;2.47;;;-0.60;99.90;;;;;;4938747;28;20286;-54
2024/01/07 01:33:43;;;;;;;5.33;2.53;;;-0.60;99.90;;;;;;4939428;28;20257;-53
2024/01/07 01:36:08;;;;;;;2.40;2.07;;;-0.60;99.90;;;;;;4938160;28;20208;-53
2024/01/07 01:38:34;;;;;;;4.20;2.47;;;-0.60;99.90;;;;;;4930235;28;20403;-54
2024/01/07 01:41:00;;;;;;;3.93;2.63;;;-0.50;99.90;;;;;;4932694;28;20206;-53
2024/01/07 01:43:26;;;;;;;5.23;2.17;;;-0.80;99.90;;;;;;4933733;28;20214;-52
2024/01/07 01:45:56;;;;;;;4.00;2.43;;;-0.70;99.90;;;;;;4932505;28;20254;-52
2024/01/07 01:48:23;;;;;;;4.10;2.30;;;-0.70;99.90;;;;;;4935527;28;20205;-52
2024/01/07 01:50:49;;;;;;;5.37;2.97;;;-0.60;99.90;;;;;;4926563;28;20198;-51
2024/01/07 01:53:15;;;;;;;2.23;1.93;;;-0.70;99.90;;;;;;4940434;28;20211;-53
2024/01/07 01:55:43;;;;;;;2.87;2.63;;;-0.80;99.90;;;;;;4930891;28;20295;-52
2024/01/07 01:58:13;;;;;;;5.03;2.70;;;-0.70;99.90;;;;;;4933247;28;21045;-52
2024/01/07 02:00:39;;;;;;;5.33;2.93;;;-0.80;99.90;;;;;;4934370;28;20198;-53
2024/01/07 02:03:05;;;;;;;2.70;2.00;;;-0.70;99.90;;;;;;4935520;28;20295;-53
2024/01/07 02:05:31;;;;;;;4.10;2.63;;;-0.70;99.90;;;;;;4934360;28;20776;-51
2024/01/07 02:07:57;;;;;;;4.37;2.93;;;-0.70;99.90;;;;;;4939285;28;20198;-52
2024/01/07 02:10:23;;;;;;;5.63;2.93;;;-0.60;99.90;;;;;;4934349;28;20381;-53
2024/01/07 02:12:49;;;;;;;3.97;3.30;;;-0.80;99.90;;;;;;4935935;28;20342;-53
2024/01/07 02:15:15;;;;;;;6.57;2.90;;;-0.70;99.90;;;;;;4933405;28;20211;-53
2024/01/07 02:17:41;;;;;;;4.20;2.33;;;-0.70;99.90;;;;;;4935174;28;20200;-52
2024/01/07 02:20:07;;;;;;;3.70;2.57;;;-0.60;99.90;;;;;;4934305;28;20214;-53
2024/01/07 02:22:32;;;;;;;3.37;3.07;;;-0.70;99.90;;;;;;4940854;28;20959;-53
2024/01/07 02:24:57;;;;;;;2.60;2.30;;;-0.60;99.90;;;;;;4940403;28;20200;-52
2024/01/07 02:27:23;;;;;;;4.67;2.70;;;-0.70;99.90;;;;;;4938345;28;20217;-52
2024/01/07 02:29:48;;;;;;;4.07;2.93;;;-0.80;99.90;;;;;;4934228;28;20207;-52
2024/01/07 02:32:14;;;;;;;5.33;3.20;;;-0.70;99.90;;;;;;4943040;28;20214;-52
2024/01/07 02:34:39;;;;;;;2.23;1.97;;;-0.70;99.90;;;;;;4943486;28;20202;-52
2024/01/07 02:37:05;;;;;;;2.07;1.90;;;-0.70;99.90;;;;;;4941370;28;20221;-52
2024/01/07 02:39:30;;;;;;;4.70;2.63;;;-0.80;99.90;;;;;;4935445;28;20239;-52
2024/01/07 02:41:56;;;;;;;2.83;1.87;;;-0.90;99.90;;;;;;4935385;28;20580;-53
2024/01/07 02:44:22;;;;;;;2.17;1.80;;;-1.00;99.90;;;;;;4941546;28;20211;-53
2024/01/07 02:46:47;;;;;;;2.83;2.47;;;-0.80;99.90;;;;;;4936316;28;20205;-52
2024/01/07 02:49:13;;;;;;;3.13;2.00;;;-1.00;99.90;;;;;;4931853;28;20233;-52
2024/01/07 02:51:38;;;;;;;3.53;2.53;;;-1.00;99.90;;;;;;4929489;28;20195;-52
2024/01/07 02:54:04;;;;;;;1.93;1.40;;;-1.00;99.90;;;;;;4936006;28;20699;-52
2024/01/07 02:56:29;;;;;;;2.87;2.07;;;-1.10;99.90;;;;;;4938850;28;20235;-52
2024/01/07 02:58:55;;;;;;;2.33;1.73;;;-1.10;99.90;;;;;;4931604;28;20301;-52
2024/01/07 03:01:24;;;;;;;1.60;1.30;;;-1.20;99.90;;;;;;4932377;28;20281;-52
2024/01/07 03:03:50;;;;;;;2.90;2.07;;;-1.10;99.90;;;;;;4933257;28;20212;-52
2024/01/07 03:06:16;;;;;;;2.10;1.87;;;-1.10;99.90;;;;;;4929922;28;20717;-52
2024/01/07 03:08:42;;;;;;;2.90;1.67;;;-1.20;99.90;;;;;;4933556;28;20573;-52
2024/01/07 03:11:08;;;;;;;3.90;2.20;;;-1.20;99.90;;;;;;4929876;28;20206;-52
2024/01/07 03:13:34;;;;;;;1.97;1.60;;;-1.20;99.90;;;;;;4930526;28;20210;-52
2024/01/07 03:16:00;;;;;;;2.13;1.63;;;-1.20;99.90;;;;;;4932383;28;20201;-53
2024/01/07 03:18:27;;;;;;;3.10;2.27;;;-1.30;99.90;;;;;;4934184;28;20227;-52
2024/01/07 03:20:52;;;;;;;2.17;1.60;;;-1.20;99.90;;;;;;4933789;28;20277;-51
2024/01/07 03:23:18;;;;;;;3.40;1.90;;;-1.30;99.90;;;;;;4935695;28;20295;-52
2024/01/07 03:25:44;;;;;;;3.77;1.90;;;-1.30;99.90;;;;;;4943255;28;20257;-52
2024/01/07 03:28:09;;;;;;;1.83;1.73;;;-1.20;99.90;;;;;;4934920;28;20209;-51
2024/01/07 03:30:35;;;;;;;2.40;2.00;;;-1.20;99.90;;;;;;4939222;28;20206;-52
2024/01/07 03:33:00;;;;;;;3.17;1.90;;;-1.20;99.90;;;;;;4936341;28;20703;-52
2024/01/07 03:35:27;;;;;;;3.17;1.90;;;-1.10;99.90;;;;;;4940986;28;20209;-52
2024/01/07 03:37:52;;;;;;;2.37;2.17;;;-1.20;99.90;;;;;;4944303;28;20293;-53
2024/01/07 03:40:18;;;;;;;2.00;1.90;;;-1.20;99.90;;;;;;4937119;28;20636;-53
2024/01/07 03:42:43;;;;;;;2.40;1.93;;;-1.10;99.90;;;;;;4930717;28;20284;-53
2024/01/07 03:45:09;;;;;;;2.47;1.97;;;-1.20;99.90;;;;;;4934937;28;20207;-53
2024/01/07 03:47:34;;;;;;;3.40;2.07;;;-1.20;99.90;;;;;;4941029;28;20310;-54
2024/01/07 03:50:00;;;;;;;2.37;1.73;;;-1.30;99.90;;;;;;4928979;28;20203;-52
2024/01/07 03:52:25;;;;;;;2.77;1.97;;;-1.30;99.90;;;;;;4932734;28;20296;-52
2024/01/07 03:54:51;;;;;;;2.67;2.07;;;-1.40;99.90;;;;;;4939525;28;20205;-52
2024/01/07 03:57:16;;;;;;;2.93;1.90;;;-1.40;99.90;;;;;;4938377;28;20289;-52
2024/01/07 03:59:42;;;;;;;2.13;1.97;;;-1.30;99.90;;;;;;4936291;28;20468;-52
2024/01/07 04:02:07;;;;;;;5.10;2.07;;;-1.30;99.90;;;;;;4938276;28;20209;-52
2024/01/07 04:04:33;;;;;;;2.93;2.10;;;-1.30;99.90;;;;;;4943289;28;20382;-52
2024/01/07 04:06:58;;;;;;;2.50;1.80;;;-1.30;99.90;;;;;;4941660;28;20423;-53
2024/01/07 04:09:24;;;;;;;4.53;1.77;;;-1.40;99.90;;;;;;4934096;28;20917;-51
2024/01/07 04:11:49;;;;;;;4.93;2.30;;;-1.30;99.90;;;;;;4944983;28;20209;-52
2024/01/07 04:14:15;;;;;;;2.43;1.80;;;-1.30;99.90;;;;;;4937179;28;20206;-51
2024/01/07 04:16:41;;;;;;;2.57;1.60;;;-1.50;99.90;;;;;;4940739;28;20285;-52
2024/01/07 04:19:06;;;;;;;2.40;2.17;;;-1.50;99.90;;;;;;4934614;28;20221;-53
2024/01/07 04:21:32;;;;;;;2.00;1.80;;;-1.50;99.90;;;;;;4932154;28;20704;-52
2024/01/07 04:23:57;;;;;;;1.70;1.60;;;-1.50;99.90;;;;;;4938442;28;20235;-51
2024/01/07 04:26:23;;;;;;;3.20;1.97;;;-1.50;99.90;;;;;;4940711;28;20210;-52
2024/01/07 04:28:48;;;;;;;2.10;1.37;;;-1.40;99.90;;;;;;4938142;28;20206;-52
2024/01/07 04:31:14;;;;;;;2.83;2.60;;;-1.50;99.90;;;;;;4943884;28;20206;-52
2024/01/07 04:33:39;;;;;;;2.00;1.77;;;-1.50;99.90;;;;;;4943394;28;21002;-52
2024/01/07 04:36:05;;;;;;;3.53;2.43;;;-1.50;99.90;;;;;;4939232;28;20299;-51
2024/01/07 04:38:30;;;;;;;1.93;1.57;;;-1.50;99.90;;;;;;4935719;28;20253;-51
2024/01/07 04:40:56;;;;;;;1.90;1.70;;;-1.50;99.90;;;;;;4938389;28;20202;-51
2024/01/07 04:43:21;;;;;;;2.53;1.90;;;-1.50;99.90;;;;;;4939965;28;20803;-52
2024/01/07 04:45:47;;;;;;;2.57;2.37;;;-1.50;99.90;;;;;;4943281;28;20193;-53
2024/01/07 04:48:13;;;;;;;2.23;1.90;;;-1.50;99.90;;;;;;4929806;28;20337;-52
2024/01/07 04:50:42;;;;;;;2.53;1.67;;;-1.60;99.90;;;;;;4931338;28;20197;-61
2024/01/07 04:53:08;;;;;;;2.40;1.80;;;-1.50;99.90;;;;;;4936936;28;20209;-53
2024/01/07 04:55:34;;;;;;;1.97;1.80;;;-1.40;99.90;;;;;;4940702;28;20287;-54
2024/01/07 04:57:59;;;;;;;1.80;1.70;;;-1.50;99.90;;;;;;4955328;28;20295;-53
2024/01/07 05:00:25;;;;;;;3.13;2.07;;;-1.50;99.90;;;;;;4936441;28;20199;-53
2024/01/07 05:02:50;;;;;;;6.53;2.63;;;-1.50;99.90;;;;;;4940382;28;20277;-51
2024/01/07 05:05:16;;;;;;;3.47;2.00;;;-1.40;99.90;;;;;;4937277;28;20207;-53
2024/01/07 05:07:41;;;;;;;2.60;2.00;;;-1.40;99.90;;;;;;4942455;28;20295;-52
2024/01/07 05:10:07;;;;;;;2.83;1.83;;;-1.40;99.90;;;;;;4933542;28;20203;-51
2024/01/07 05:12:33;;;;;;;3.57;2.10;;;-1.40;99.90;;;;;;4942163;28;20267;-52
2024/01/07 05:14:58;;;;;;;1.80;1.70;;;-1.40;99.90;;;;;;4940295;28;20230;-52
2024/01/07 05:17:24;;;;;;;2.47;1.83;;;-1.40;99.90;;;;;;4938506;28;20196;-52
2024/01/07 05:19:49;;;;;;;2.40;2.17;;;-1.30;99.90;;;;;;4936177;28;20241;-51
2024/01/07 05:22:15;;;;;;;3.00;2.00;;;-1.20;99.90;;;;;;4936263;28;20233;-52
2024/01/07 05:24:40;;;;;;;3.07;2.10;;;-1.20;99.90;;;;;;4944805;28;20201;-52
2024/01/07 05:27:06;;;;;;;2.17;1.97;;;-1.30;99.90;;;;;;4939856;28;20209;-52
2024/01/07 05:29:35;;;;;;;2.33;2.13;;;-1.20;99.90;;;;;;4944939;28;20222;-52
2024/01/07 05:32:01;;;;;;;1.93;1.77;;;-1.20;99.90;;;;;;4938280;28;20645;-51
2024/01/07 05:34:28;;;;;;;3.60;2.37;;;-1.30;99.90;;;;;;4937736;28;20215;-52
2024/01/07 05:36:53;;;;;;;2.20;2.00;;;-1.20;99.90;;;;;;4940162;28;20263;-52
2024/01/07 05:39:19;;;;;;;2.23;2.03;;;-1.30;99.90;;;;;;4937353;28;20246;-52
2024/01/07 05:41:45;;;;;;;2.03;1.67;;;-1.20;99.90;;;;;;4940715;28;20208;-52
2024/01/07 05:44:11;;;;;;;3.80;2.03;;;-1.20;99.90;;;;;;4940211;28;20207;-52
2024/01/07 05:46:40;;;;;;;4.17;1.83;;;-1.20;99.90;;;;;;4936602;28;21046;-53
2024/01/07 05:49:08;;;;;;;2.70;1.90;;;-1.10;99.90;;;;;;4935974;28;20199;-52
2024/01/07 05:51:33;;;;;;;1.63;1.53;;;-1.10;99.90;;;;;;4938640;28;20205;-53
2024/01/07 05:53:59;;;;;;;4.00;2.20;;;-1.10;99.90;;;;;;4933279;28;20207;-53
2024/01/07 05:56:24;;;;;;;2.30;1.87;;;-1.10;99.90;;;;;;4931540;28;20212;-52
2024/01/07 05:58:50;;;;;;;1.90;1.73;;;-1.20;99.90;;;;;;4935901;28;20349;-52
2024/01/07 06:01:20;;;;;;;3.37;2.07;;;-1.10;99.90;;;;;;4929171;28;20211;-53
2024/01/07 06:03:47;;;;;;;2.83;2.00;;;-1.00;99.90;;;;;;4931385;28;20324;-52
2024/01/07 06:06:14;;;;;;;2.40;2.00;;;-0.90;99.90;;;;;;4936300;28;20551;-60
2024/01/07 06:08:40;;;;;;;2.80;2.10;;;-1.00;99.90;;;;;;4935087;28;20913;-60
2024/01/07 06:11:06;;;;;;;2.87;2.30;;;-0.90;99.90;;;;;;4933186;28;20214;-52
2024/01/07 06:13:32;;;;;;;3.37;2.23;;;-0.80;99.90;;;;;;4934150;28;20315;-53
2024/01/07 06:15:57;;;;;;;2.37;2.17;;;-0.80;99.90;;;;;;4931175;28;20226;-54
2024/01/07 06:18:23;;;;;;;2.53;2.33;;;-0.90;99.90;;;;;;4928991;28;20220;-53
2024/01/07 06:20:48;;;;;;;2.73;2.37;;;-1.00;99.90;;;;;;4935377;28;20602;-52
2024/01/07 06:23:14;;;;;;;2.60;1.97;;;-0.90;99.90;;;;;;4937967;28;20798;-53
2024/01/07 06:25:39;;;;;;;3.27;2.87;;;-0.70;99.90;;;;;;4936679;28;20208;-52
2024/01/07 06:28:05;;;;;;;2.07;1.87;;;-0.70;99.90;;;;;;4940518;28;20266;-52
2024/01/07 06:30:30;;;;;;;3.80;2.30;;;-0.70;99.90;;;;;;4942846;28;20290;-53
2024/01/07 06:32:56;;;;;;;2.63;2.17;;;-0.60;99.90;;;;;;4932624;28;20292;-52
2024/01/07 06:35:22;;;;;;;3.80;1.93;;;-0.70;99.90;;;;;;4939517;28;20202;-52
2024/01/07 06:37:47;;;;;;;2.63;2.33;;;-0.60;99.90;;;;;;4941173;28;20210;-52
2024/01/07 06:40:13;;;;;;;3.23;2.50;;;-0.80;99.90;;;;;;4936035;28;20222;-58
2024/01/07 06:42:39;;;;;;;3.20;2.90;;;-0.80;99.90;;;;;;4943624;28;20631;-53
2024/01/07 06:45:05;;;;;;;4.00;2.10;;;-0.70;99.90;;;;;;4939593;28;20197;-52
2024/01/07 06:47:30;;;;;;;1.67;1.57;;;-0.80;99.90;;;;;;4934943;28;21587;-52
2024/01/07 06:49:56;;;;;;;3.23;2.33;;;-0.90;99.90;;;;;;4935490;28;20210;-52
2024/01/07 06:52:21;;;;;;;5.27;2.43;;;-1.00;99.90;;;;;;4933163;28;20718;-53
2024/01/07 06:54:47;;;;;;;1.83;1.73;;;-0.90;99.90;;;;;;4934553;28;20602;-53
2024/01/07 06:57:12;;;;;;;3.57;2.93;;;-0.80;99.90;;;;;;4931147;28;20217;-53
2024/01/07 06:59:37;;;;;;;3.33;2.40;;;-0.80;99.90;;;;;;4935489;28;20271;-54
2024/01/07 07:02:03;;;;;;;2.33;1.90;;;-0.80;99.90;;;;;;4934860;28;20798;-52
2024/01/07 07:04:29;;;;;;;4.97;2.90;;;-0.80;99.90;;;;;;4933396;28;20215;-51
2024/01/07 07:06:54;;;;;;;5.13;2.30;;;-0.80;99.90;;;;;;4937996;28;21005;-52
2024/01/07 07:09:19;;;;;;;3.83;2.20;;;-0.80;99.90;;;;;;4944511;28;20197;-52
2024/01/07 07:11:45;;;;;;;2.50;2.30;;;-0.80;99.90;;;;;;4936971;28;20487;-53
2024/01/07 07:14:10;;;;;;;3.10;2.73;;;-0.70;99.90;;;;;;4942956;28;20210;-52
2024/01/07 07:16:36;;;;;;;5.33;2.97;;;-0.70;99.90;;;;;;4940401;28;20229;-51
2024/01/07 07:19:02;;;;;;;3.97;2.50;;;-0.70;99.90;;;;;;4935765;28;20276;-53
2024/01/07 07:21:27;;;;;;;4.13;2.60;;;-0.70;99.90;;;;;;4937628;28;20788;-52
2024/01/07 07:23:53;;;;;;;2.93;2.50;;;-0.70;99.90;;;;;;4938228;28;20290;-53
2024/01/07 07:26:19;;;;;;;3.57;2.10;;;-0.60;99.90;;;;;;4931198;28;20207;-52
2024/01/07 07:28:44;;;;;;;2.47;2.30;;;-0.60;99.90;;;;;;4944196;28;20742;-52
2024/01/07 07:31:11;;;;;;;2.93;2.20;;;-0.60;99.90;;;;;;4937621;28;20217;-52
2024/01/07 07:33:39;;;;;;;3.60;2.77;;;-0.50;99.90;;;;;;4939078;28;20232;-53
2024/01/07 07:36:05;;;;;;;3.20;2.40;;;-0.50;99.90;;;;;;4920659;28;20578;-52
2024/01/07 07:38:30;;;;;;;4.13;2.60;;;-0.50;99.90;;;;;;4943349;28;20242;-52
2024/01/07 07:40:56;;;;;;;2.63;2.30;;;-0.50;99.90;;;;;;4937722;28;20253;-52
2024/01/07 07:43:21;;;;;;;5.77;2.30;;;-0.40;99.90;;;;;;4933628;28;20618;-52
2024/01/07 07:45:47;;;;;;;2.57;2.37;;;-0.30;99.90;;;;;;4940959;28;20211;-52
2024/01/07 07:48:13;;;;;;;3.27;2.57;;;-0.50;99.90;;;;;;4937471;28;20204;-53
2024/01/07 07:50:40;;;;;;;3.33;2.17;;;-0.50;99.90;;;;;;4928471;28;20264;-52
2024/01/07 07:53:05;;;;;;;2.47;2.23;;;-0.50;99.90;;;;;;4938347;28;20254;-53
2024/01/07 07:55:31;;;;;;;3.47;2.07;;;-0.60;99.90;;;;;;4937771;28;20656;-52
2024/01/07 07:57:57;;;;;;;3.27;2.50;;;-0.60;99.90;;;;;;4940783;28;23589;-53
2024/01/07 08:00:23;;;;;;;4.10;2.40;;;-0.70;99.90;;;;;;4937544;28;20775;-53
2024/01/07 08:02:48;;;;;;;3.23;2.23;;;-0.60;99.90;;;;;;4939162;28;20286;-52
2024/01/07 08:05:14;;;;;;;3.37;2.20;;;-0.70;99.90;;;;;;4948592;28;20204;-52
2024/01/07 08:07:39;;;;;;;3.10;2.13;;;-0.50;99.90;;;;;;4945783;28;20204;-51
2024/01/07 08:10:06;;;;;;;3.77;2.20;;;-0.50;99.90;;;;;;4939710;28;21102;-52
2024/01/07 08:12:31;;;;;;;2.77;2.10;;;-0.60;99.90;;;;;;4937695;28;21004;-52
2024/01/07 08:14:57;;;;;;;2.63;2.43;;;-0.40;99.90;;;;;;4940630;28;20209;-51
2024/01/07 08:17:22;;;;;;;2.23;1.87;;;-0.40;99.90;;;;;;4942710;28;20273;-52
2024/01/07 08:19:48;;;;;;;2.47;2.10;;;-0.50;99.90;;;;;;4944263;28;20251;-51
2024/01/07 08:22:14;;;;;;;1.73;1.63;;;-0.60;99.90;;;;;;4945412;28;20204;-53
2024/01/07 08:24:39;;;;;;;2.80;2.20;;;-0.40;99.90;;;;;;4940077;28;20196;-52
2024/01/07 08:27:05;;;;;;;3.60;2.57;;;-0.30;99.90;;;;;;4938174;28;20229;-51
2024/01/07 08:29:30;;;;;;;2.40;2.20;;;-0.50;99.90;;;;;;4943633;28;20251;-54
2024/01/07 08:31:56;;;;;;;3.13;2.50;;;-0.50;99.90;;;;;;4942485;28;20207;-52
2024/01/07 08:34:21;;;;;;;3.27;2.50;;;-0.40;99.90;;;;;;4938469;28;20232;-53
2024/01/07 08:36:47;;;;;;;3.23;2.60;;;-0.40;99.90;;;;;;4947091;28;20234;-52
2024/01/07 08:39:15;;;;;;;2.50;2.30;;;-0.20;99.90;;;;;;4934917;28;20588;-62
2024/01/07 08:41:40;;;;;;;3.13;2.27;;;-0.30;99.90;;;;;;4937177;28;20570;-61
2024/01/07 08:44:08;;;;;;;4.53;3.10;;;-0.20;99.90;;;;;;4940275;28;20218;-59
2024/01/07 08:46:34;;;;;;;4.23;2.80;;;-0.20;99.90;;;;;;4934387;28;20258;-52
2024/01/07 08:48:59;;;;;;;3.40;3.10;;;-0.30;99.90;;;;;;4937786;28;20219;-53
2024/01/07 08:51:25;;;;;;;2.90;2.60;;;-0.20;99.90;;;;;;4933267;28;20208;-52
2024/01/07 08:53:50;;;;;;;2.80;2.57;;;-0.20;99.90;;;;;;4938703;28;20685;-54
2024/01/07 08:56:16;;;;;;;2.50;2.30;;;-0.10;99.90;;;;;;4937592;28;20295;-53
2024/01/07 08:58:42;;;;;;;3.73;2.43;;;-0.10;99.90;;;;;;4934333;28;20220;-52
2024/01/07 09:01:08;;;;;;;4.43;2.70;;;-0.10;99.90;;;;;;4933705;28;20204;-51
2024/01/07 09:03:33;;;;;;;3.33;2.60;;;0.10;99.90;;;;;;4937647;28;20262;-52
2024/01/07 09:05:59;;;;;;;5.53;2.73;;;0.30;99.90;;;;;;4936845;28;20214;-52
2024/01/07 09:08:24;;;;;;;4.93;2.50;;;0.20;99.90;;;;;;4937084;28;20215;-52
2024/01/07 09:10:50;;;;;;;2.80;2.60;;;0.20;99.90;;;;;;4933417;28;20212;-53
2024/01/07 09:13:15;;;;;;;7.67;3.23;;;0.20;99.90;;;;;;4940245;28;20633;-52
2024/01/07 09:15:41;;;;;;;4.70;3.43;;;0.10;99.90;;;;;;4942523;28;20196;-52
2024/01/07 09:18:07;;;;;;;5.50;3.37;;;0.10;99.90;;;;;;4941906;28;20212;-53
2024/01/07 09:20:33;;;;;;;3.23;2.77;;;-0.20;99.90;;;;;;4946436;28;20245;-51
2024/01/07 09:22:59;;;;;;;3.90;3.53;;;-0.50;99.90;;;;;;4945107;28;20230;-53
2024/01/07 09:25:25;;;;;;;7.00;4.03;;;-0.40;99.90;;;;;;4939286;28;20242;-51
2024/01/07 09:27:51;;;;;;;6.83;3.60;;;-0.50;99.90;;;;;;4941382;28;20201;-52
2024/01/07 09:30:17;;;;;;;6.17;3.07;;;-0.70;99.90;;;;;;4936511;28;20229;-52
2024/01/07 09:32:43;;;;;;;6.50;3.27;;;-0.60;99.90;;;;;;4940484;28;20514;-51
2024/01/07 09:35:09;;;;;;;6.03;4.23;;;-0.60;99.90;;;;;;4938388;28;20261;-52
2024/01/07 09:37:35;;;;;;;4.97;3.83;;;-0.50;99.90;;;;;;4941048;28;20619;-53
2024/01/07 09:40:01;;;;;;;4.00;3.20;;;-0.40;99.90;;;;;;4933335;28;20215;-53
2024/01/07 09:42:26;;;;;;;4.30;3.20;;;-0.30;99.90;;;;;;4943544;28;20208;-51
2024/01/07 09:44:52;;;;;;;4.57;3.40;;;-0.30;99.90;;;;;;4942303;28;20500;-52
2024/01/07 09:47:17;;;;;;;5.00;3.13;;;-0.10;99.90;;;;;;4934882;28;20212;-52
2024/01/07 09:49:43;;;;;;;5.97;3.83;;;-0.40;99.90;;;;;;4930784;28;20194;-61
2024/01/07 09:52:11;;;;;;;4.43;3.67;;;-0.70;99.90;;;;;;4932918;28;20588;-56
2024/01/07 09:54:40;;;;;;;5.97;3.90;;;-0.50;99.90;;;;;;4935947;28;20206;-55
2024/01/07 09:57:07;;;;;;;6.10;3.93;;;-0.20;99.90;;;;;;4933214;28;20578;-53
2024/01/07 09:59:34;;;;;;;5.67;3.63;;;0.00;99.90;;;;;;4934698;28;20290;-53
2024/01/07 10:02:00;;;;;;;5.83;3.67;;;-0.30;99.90;;;;;;4934515;28;20638;-53
2024/01/07 10:04:27;;;;;;;5.03;3.57;;;-0.30;99.90;;;;;;4935959;28;20207;-56
2024/01/07 10:06:54;;;;;;;6.07;4.47;;;-0.50;99.90;;;;;;4935764;28;20207;-61
2024/01/07 10:09:21;;;;;;;7.33;4.40;;;-0.40;99.90;;;;;;4933351;28;20250;-53
2024/01/07 10:11:47;;;;;;;5.87;4.30;;;-0.40;99.90;;;;;;4931776;28;20893;-59
2024/01/07 10:14:13;;;;;;;6.40;4.23;;;-0.30;99.90;;;;;;4931391;28;20226;-52
2024/01/07 10:16:39;;;;;;;5.67;4.57;;;-0.30;99.90;;;;;;4929675;28;20199;-51
2024/01/07 10:19:05;;;;;;;5.93;4.27;;;-0.50;99.90;;;;;;4933752;28;20210;-53
2024/01/07 10:21:30;;;;;;;6.03;4.73;;;-0.50;99.90;;;;;;4933390;28;20256;-51
2024/01/07 10:24:12;;;;;;;5.50;4.50;;;-0.40;99.90;;;;;;4932700;28;20210;-53
2024/01/07 10:26:39;;;;;;;5.50;4.30;;;-0.30;99.90;;;;;;4936984;28;20684;-52
2024/01/07 10:29:05;;;;;;;6.73;4.50;;;-0.20;99.90;;;;;;4931931;28;20206;-53
2024/01/07 10:31:32;;;;;;;5.33;4.03;;;-0.30;99.90;;;;;;4933139;28;20204;-53
2024/01/07 10:33:57;;;;;;;5.57;4.57;;;-0.10;99.90;;;;;;4933426;28;20639;-52
2024/01/07 10:36:24;;;;;;;6.63;4.73;;;-0.10;99.90;;;;;;4930570;28;20467;-52
2024/01/07 10:38:50;;;;;;;6.53;4.63;;;0.00;99.90;;;;;;4934789;28;20259;-52
2024/01/07 10:41:18;;;;;;;6.60;4.50;;;-0.30;99.90;;;;;;4936062;28;20221;-53
2024/01/07 10:43:49;;;;;;;7.03;4.23;;;-0.40;99.90;;;;;;4935380;28;20281;-55
2024/01/07 10:46:15;;;;;;;6.80;4.70;;;-0.20;99.90;;;;;;4927913;28;20203;-53
2024/01/07 10:49:00;;;;;;;6.57;4.77;;;0.00;99.90;;;;;;4938571;28;20187;-53
2024/01/07 10:51:28;;;;;;;7.03;4.73;;;0.00;99.90;;;;;;4942642;28;20671;-53
2024/01/07 10:53:56;;;;;;;7.07;4.30;;;-0.30;99.90;;;;;;4944156;28;20213;-53
2024/01/07 10:56:32;;;;;;;6.27;4.93;;;-0.30;99.90;;;;;;4939897;28;20296;-53
2024/01/07 10:58:59;;;;;;;5.90;4.97;;;0.00;99.90;;;;;;4939715;29;20232;-59
2024/01/07 11:01:25;;;;;;;7.43;4.90;;;0.20;99.90;;;;;;4933629;28;20204;-61
2024/01/07 11:04:20;;;;;;;6.27;4.27;;;0.40;99.90;;;;;;4938245;28;20270;-53
2024/01/07 11:07:08;;;;;;;5.30;4.57;;;0.50;99.90;;;;;;4930793;28;20204;-54
2024/01/07 11:09:54;;;;;;;4.87;4.17;;;0.40;99.90;;;;;;4936436;28;20226;-53
2024/01/07 11:12:20;;;;;;;7.67;5.50;;;0.60;99.90;;;;;;4936385;28;20639;-52
2024/01/07 11:14:52;;;;;;;4.50;3.83;;;0.70;99.90;;;;;;4934888;28;20209;-53
2024/01/07 11:17:40;;;;;;;6.67;4.50;;;0.20;99.90;;;;;;4935952;28;20226;-53
2024/01/07 11:20:26;;;;;;;7.67;4.03;;;-0.20;99.90;;;;;;4918659;28;20598;-59
2024/01/07 11:22:52;;;;;;;7.33;4.47;;;0.20;99.90;;;;;;4931495;28;20204;-53
2024/01/07 11:25:31;;;;;;;4.23;3.67;;;0.40;99.90;;;;;;4938047;28;20740;-60
2024/01/07 11:27:58;;;;;;;6.50;4.33;;;0.60;99.90;;;;;;4924327;28;20977;-53
2024/01/07 11:30:25;;;;;;;3.97;3.57;;;0.60;99.90;;;;;;4934252;28;20217;-53
2024/01/07 11:32:57;;;;;;;5.53;4.07;;;0.50;99.90;;;;;;4934751;28;20206;-54
2024/01/07 11:35:59;;;;;;;6.53;4.37;;;0.50;99.90;;;;;;4930291;28;20303;-53
2024/01/07 11:38:24;;;;;;;6.93;3.97;;;0.50;99.90;;;;;;4931509;28;21161;-53
2024/01/07 11:40:51;;;;;;;5.07;3.80;;;0.20;99.90;;;;;;4931865;28;20215;-53
2024/01/07 11:43:16;;;;;;;8.13;4.00;;;0.40;99.90;;;;;;4934730;28;20899;-53
2024/01/07 11:45:42;;;;;;;5.17;4.67;;;0.20;99.90;;;;;;4934092;28;20215;-53
2024/01/07 11:48:08;;;;;;;5.00;4.20;;;0.20;99.90;;;;;;4933069;28;20203;-52
2024/01/07 11:50:35;;;;;;;4.73;3.60;;;0.10;99.90;;;;;;4935663;28;20741;-53
2024/01/07 11:53:01;;;;;;;5.93;4.57;;;-0.30;99.90;;;;;;4937519;28;20694;-53
2024/01/07 11:55:29;;;;;;;4.20;3.73;;;-0.50;99.90;;;;;;4931517;28;20401;-53
2024/01/07 11:57:55;;;;;;;7.43;4.13;;;-0.70;99.90;;;;;;4927974;28;21077;-53
2024/01/07 12:00:21;;;;;;;4.10;3.70;;;-0.60;99.90;;;;;;4938439;28;20716;-54
2024/01/07 12:02:47;;;;;;;4.13;3.27;;;-0.50;99.90;;;;;;4937558;28;20216;-54
2024/01/07 12:05:15;;;;;;;6.60;4.33;;;-0.40;99.90;;;;;;4933934;28;20322;-54
2024/01/07 12:07:41;;;;;;;5.93;3.60;;;-0.40;99.90;;;;;;4937872;28;20234;-54
2024/01/07 12:10:12;;;;;;;3.73;3.03;;;-0.50;99.90;;;;;;4936781;28;21042;-59
2024/01/07 12:12:41;;;;;;;2.90;2.70;;;-0.40;99.90;;;;;;4929632;28;20632;-53
2024/01/07 12:15:08;;;;;;;3.50;3.20;;;-0.30;99.90;;;;;;4932177;28;20287;-54
2024/01/07 12:17:34;;;;;;;2.93;2.63;;;0.00;99.90;;;;;;4932738;28;20640;-54
2024/01/07 12:20:00;;;;;;;4.30;2.70;;;0.00;99.90;;;;;;4932884;28;20515;-55
2024/01/07 12:22:28;;;;;;;7.47;3.47;;;-0.10;99.90;;;;;;4936546;28;20204;-61
2024/01/07 12:25:04;;;;;;;3.83;3.47;;;-0.10;99.90;;;;;;4927695;28;20204;-68
2024/01/07 12:27:30;;;;;;;4.50;3.43;;;-0.20;99.90;;;;;;4931919;28;20200;-54
2024/01/07 12:29:57;;;;;;;6.87;2.93;;;-0.10;99.90;;;;;;4935961;28;20231;-53
2024/01/07 12:32:25;;;;;;;2.83;2.43;;;-0.10;99.90;;;;;;4941778;28;20208;-54
2024/01/07 12:34:51;;;;;;;4.73;2.70;;;0.00;99.90;;;;;;4939860;28;20198;-54
2024/01/07 12:37:17;;;;;;;4.97;3.03;;;0.00;99.90;;;;;;4900775;28;1008440;-52
2024/01/07 12:39:42;;;;;;;3.70;3.40;;;0.10;99.90;;;;;;4935757;28;20239;-54
2024/01/07 12:42:08;;;;;;;4.40;3.00;;;0.30;99.90;;;;;;4936666;28;20315;-55
2024/01/07 12:44:36;;;;;;;4.60;3.20;;;0.30;99.90;;;;;;4936641;28;20200;-52